Knoxville (TYS/KTYS)

Map

Destinations

Information

Location
Knoxville, TN
Local Time
04:11 / 4:11 am
GMT Time
08:11 / 8:11 am
Gates
10
No FAA reported delays
METAR KTYS 270753Z 21008KT 10SM BKN070 BKN200 21/16 A2996 RMK AO2 SLP134 T02110156
TAF KTYS 270520Z 2706/2806 23003KT P6SM BKN060 FM271000 23008KT P6SM BKN050 FM271800 24010KT P6SM OVC035 FM280000 23005KT 3SM -TSRA OVC025CB